sensor_id;sensor_type;location;lat;lon;timestamp;P1;durP1;ratioP1;P2;durP2;ratioP2
56233;SDS011;42141;53.240;6.580;2023-03-01T00:01:00;17.20;;;9.45;;
56233;SDS011;42141;53.240;6.580;2023-03-01T00:03:28;20.20;;;11.43;;
56233;SDS011;42141;53.240;6.580;2023-03-01T00:05:54;19.20;;;11.27;;
56233;SDS011;42141;53.240;6.580;2023-03-01T00:08:19;20.73;;;11.50;;
56233;SDS011;42141;53.240;6.580;2023-03-01T00:10:45;18.15;;;10.55;;
56233;SDS011;42141;53.240;6.580;2023-03-01T00:13:11;17.50;;;9.93;;
56233;SDS011;42141;53.240;6.580;2023-03-01T00:15:40;15.80;;;10.18;;
56233;SDS011;42141;53.240;6.580;2023-03-01T00:18:06;15.02;;;9.73;;
56233;SDS011;42141;53.240;6.580;2023-03-01T00:20:33;17.77;;;9.60;;
56233;SDS011;42141;53.240;6.580;2023-03-01T00:22:59;15.45;;;9.27;;
56233;SDS011;42141;53.240;6.580;2023-03-01T00:25:25;17.25;;;10.30;;
56233;SDS011;42141;53.240;6.580;2023-03-01T00:27:51;16.58;;;10.35;;
56233;SDS011;42141;53.240;6.580;2023-03-01T00:30:16;14.82;;;10.07;;
56233;SDS011;42141;53.240;6.580;2023-03-01T00:32:42;18.17;;;9.85;;
56233;SDS011;42141;53.240;6.580;2023-03-01T00:35:08;15.23;;;9.15;;
56233;SDS011;42141;53.240;6.580;2023-03-01T00:37:34;19.55;;;10.10;;
56233;SDS011;42141;53.240;6.580;2023-03-01T00:40:00;18.38;;;10.18;;
56233;SDS011;42141;53.240;6.580;2023-03-01T00:42:25;17.65;;;9.80;;
56233;SDS011;42141;53.240;6.580;2023-03-01T00:44:51;16.05;;;9.77;;
56233;SDS011;42141;53.240;6.580;2023-03-01T00:47:17;14.35;;;9.45;;
56233;SDS011;42141;53.240;6.580;2023-03-01T00:49:43;23.80;;;10.60;;
56233;SDS011;42141;53.240;6.580;2023-03-01T00:52:09;15.93;;;9.45;;
56233;SDS011;42141;53.240;6.580;2023-03-01T00:54:34;15.00;;;9.13;;
56233;SDS011;42141;53.240;6.580;2023-03-01T00:57:00;13.85;;;9.48;;
56233;SDS011;42141;53.240;6.580;2023-03-01T00:59:26;20.85;;;10.85;;
56233;SDS011;42141;53.240;6.580;2023-03-01T01:01:52;16.60;;;10.00;;
56233;SDS011;42141;53.240;6.580;2023-03-01T01:04:17;13.43;;;8.70;;
56233;SDS011;42141;53.240;6.580;2023-03-01T01:06:44;15.93;;;8.93;;
56233;SDS011;42141;53.240;6.580;2023-03-01T01:09:15;16.17;;;9.32;;
56233;SDS011;42141;53.240;6.580;2023-03-01T01:11:43;15.82;;;9.93;;
56233;SDS011;42141;53.240;6.580;2023-03-01T01:14:11;16.85;;;9.60;;
56233;SDS011;42141;53.240;6.580;2023-03-01T01:16:37;18.20;;;9.82;;
56233;SDS011;42141;53.240;6.580;2023-03-01T01:19:03;14.55;;;9.32;;
56233;SDS011;42141;53.240;6.580;2023-03-01T01:21:30;16.40;;;9.45;;
56233;SDS011;42141;53.240;6.580;2023-03-01T01:23:56;18.77;;;10.88;;
56233;SDS011;42141;53.240;6.580;2023-03-01T01:26:23;21.00;;;11.02;;
56233;SDS011;42141;53.240;6.580;2023-03-01T01:28:51;18.50;;;10.27;;
56233;SDS011;42141;53.240;6.580;2023-03-01T01:31:20;17.63;;;9.73;;
56233;SDS011;42141;53.240;6.580;2023-03-01T01:33:48;16.88;;;8.82;;
56233;SDS011;42141;53.240;6.580;2023-03-01T01:36:15;20.88;;;10.60;;
56233;SDS011;42141;53.240;6.580;2023-03-01T01:38:41;23.95;;;10.77;;
56233;SDS011;42141;53.240;6.580;2023-03-01T01:41:10;18.58;;;9.23;;
56233;SDS011;42141;53.240;6.580;2023-03-01T01:43:39;14.63;;;9.18;;
56233;SDS011;42141;53.240;6.580;2023-03-01T01:46:15;20.23;;;9.80;;
56233;SDS011;42141;53.240;6.580;2023-03-01T01:48:55;20.33;;;10.68;;
56233;SDS011;42141;53.240;6.580;2023-03-01T01:51:27;24.98;;;10.65;;
56233;SDS011;42141;53.240;6.580;2023-03-01T01:54:03;33.58;;;10.48;;
56233;SDS011;42141;53.240;6.580;2023-03-01T01:56:42;83.50;;;11.25;;
56233;SDS011;42141;53.240;6.580;2023-03-01T01:59:13;104.88;;;11.57;;
56233;SDS011;42141;53.240;6.580;2023-03-01T02:01:39;55.42;;;9.18;;
56233;SDS011;42141;53.240;6.580;2023-03-01T02:04:05;17.75;;;8.48;;
56233;SDS011;42141;53.240;6.580;2023-03-01T02:06:38;33.72;;;10.88;;
56233;SDS011;42141;53.240;6.580;2023-03-01T02:09:11;27.98;;;8.52;;
56233;SDS011;42141;53.240;6.580;2023-03-01T02:11:39;35.17;;;7.95;;
56233;SDS011;42141;53.240;6.580;2023-03-01T02:14:05;14.45;;;8.80;;
56233;SDS011;42141;53.240;6.580;2023-03-01T02:16:31;18.17;;;8.43;;
56233;SDS011;42141;53.240;6.580;2023-03-01T02:18:57;19.00;;;8.32;;
56233;SDS011;42141;53.240;6.580;2023-03-01T02:23:53;75.03;;;8.07;;
56233;SDS011;42141;53.240;6.580;2023-03-01T02:28:56;40.92;;;7.15;;
56233;SDS011;42141;53.240;6.580;2023-03-01T02:31:22;71.45;;;9.13;;
56233;SDS011;42141;53.240;6.580;2023-03-01T02:34:07;20.60;;;7.35;;
56233;SDS011;42141;53.240;6.580;2023-03-01T02:36:40;11.77;;;6.80;;
56233;SDS011;42141;53.240;6.580;2023-03-01T02:39:13;18.23;;;6.72;;
56233;SDS011;42141;53.240;6.580;2023-03-01T02:41:47;27.42;;;7.05;;
56233;SDS011;42141;53.240;6.580;2023-03-01T02:44:19;6.85;;;4.25;;
56233;SDS011;42141;53.240;6.580;2023-03-01T02:46:47;12.52;;;6.20;;
56233;SDS011;42141;53.240;6.580;2023-03-01T02:49:38;10.32;;;6.20;;
56233;SDS011;42141;53.240;6.580;2023-03-01T02:55:03;11.35;;;6.07;;
56233;SDS011;42141;53.240;6.580;2023-03-01T02:57:33;14.23;;;6.65;;
56233;SDS011;42141;53.240;6.580;2023-03-01T03:00:02;10.13;;;6.47;;
56233;SDS011;42141;53.240;6.580;2023-03-01T03:02:34;10.88;;;5.95;;
56233;SDS011;42141;53.240;6.580;2023-03-01T03:07:39;10.45;;;6.13;;
56233;SDS011;42141;53.240;6.580;2023-03-01T03:10:08;10.10;;;6.07;;
56233;SDS011;42141;53.240;6.580;2023-03-01T03:12:39;9.77;;;6.03;;
56233;SDS011;42141;53.240;6.580;2023-03-01T03:15:06;15.38;;;7.68;;
56233;SDS011;42141;53.240;6.580;2023-03-01T03:17:38;12.05;;;6.93;;
56233;SDS011;42141;53.240;6.580;2023-03-01T03:20:06;14.15;;;8.02;;
56233;SDS011;42141;53.240;6.580;2023-03-01T03:22:40;16.23;;;7.43;;
56233;SDS011;42141;53.240;6.580;2023-03-01T03:25:06;15.25;;;8.07;;
56233;SDS011;42141;53.240;6.580;2023-03-01T03:27:37;12.35;;;6.97;;
56233;SDS011;42141;53.240;6.580;2023-03-01T03:30:04;13.00;;;7.45;;
56233;SDS011;42141;53.240;6.580;2023-03-01T03:32:38;13.93;;;8.15;;
56233;SDS011;42141;53.240;6.580;2023-03-01T03:35:05;13.45;;;8.15;;
56233;SDS011;42141;53.240;6.580;2023-03-01T03:37:36;13.05;;;7.85;;
56233;SDS011;42141;53.240;6.580;2023-03-01T03:40:24;13.45;;;7.30;;
56233;SDS011;42141;53.240;6.580;2023-03-01T03:42:51;16.05;;;8.15;;
56233;SDS011;42141;53.240;6.580;2023-03-01T03:45:17;15.38;;;8.15;;
56233;SDS011;42141;53.240;6.580;2023-03-01T03:47:43;13.00;;;7.85;;
56233;SDS011;42141;53.240;6.580;2023-03-01T03:50:09;14.23;;;7.35;;
56233;SDS011;42141;53.240;6.580;2023-03-01T03:52:36;13.68;;;8.05;;
56233;SDS011;42141;53.240;6.580;2023-03-01T03:55:02;14.20;;;8.35;;
56233;SDS011;42141;53.240;6.580;2023-03-01T03:57:28;15.93;;;8.50;;
56233;SDS011;42141;53.240;6.580;2023-03-01T03:59:54;14.10;;;7.35;;
56233;SDS011;42141;53.240;6.580;2023-03-01T04:02:19;14.02;;;7.30;;
56233;SDS011;42141;53.240;6.580;2023-03-01T04:04:49;13.13;;;7.82;;
56233;SDS011;42141;53.240;6.580;2023-03-01T04:07:15;15.52;;;8.60;;
56233;SDS011;42141;53.240;6.580;2023-03-01T04:09:42;16.85;;;7.85;;
56233;SDS011;42141;53.240;6.580;2023-03-01T04:12:09;13.23;;;7.10;;
56233;SDS011;42141;53.240;6.580;2023-03-01T04:14:35;16.70;;;6.78;;
56233;SDS011;42141;53.240;6.580;2023-03-01T04:17:01;12.25;;;7.18;;
56233;SDS011;42141;53.240;6.580;2023-03-01T04:19:30;16.73;;;8.02;;
56233;SDS011;42141;53.240;6.580;2023-03-01T04:22:04;50.97;;;8.15;;
56233;SDS011;42141;53.240;6.580;2023-03-01T04:24:34;59.03;;;9.02;;
56233;SDS011;42141;53.240;6.580;2023-03-01T04:27:01;14.00;;;7.68;;
56233;SDS011;42141;53.240;6.580;2023-03-01T04:29:27;28.42;;;7.57;;
56233;SDS011;42141;53.240;6.580;2023-03-01T04:31:53;20.45;;;8.05;;
56233;SDS011;42141;53.240;6.580;2023-03-01T04:34:19;74.50;;;10.73;;
56233;SDS011;42141;53.240;6.580;2023-03-01T04:36:45;70.97;;;9.93;;
56233;SDS011;42141;53.240;6.580;2023-03-01T04:39:11;31.80;;;8.60;;
56233;SDS011;42141;53.240;6.580;2023-03-01T04:41:37;69.00;;;10.82;;
56233;SDS011;42141;53.240;6.580;2023-03-01T04:44:04;23.08;;;7.28;;
56233;SDS011;42141;53.240;6.580;2023-03-01T04:46:31;21.52;;;8.02;;
56233;SDS011;42141;53.240;6.580;2023-03-01T04:48:57;72.38;;;7.50;;
56233;SDS011;42141;53.240;6.580;2023-03-01T04:51:22;43.67;;;7.65;;
56233;SDS011;42141;53.240;6.580;2023-03-01T04:53:48;81.00;;;8.82;;
56233;SDS011;42141;53.240;6.580;2023-03-01T04:56:14;18.83;;;6.80;;
56233;SDS011;42141;53.240;6.580;2023-03-01T04:58:40;30.65;;;7.00;;
56233;SDS011;42141;53.240;6.580;2023-03-01T05:01:10;28.65;;;6.25;;
56233;SDS011;42141;53.240;6.580;2023-03-01T05:03:41;16.88;;;5.97;;
56233;SDS011;42141;53.240;6.580;2023-03-01T05:06:11;16.38;;;6.72;;
56233;SDS011;42141;53.240;6.580;2023-03-01T05:08:41;38.53;;;6.88;;
56233;SDS011;42141;53.240;6.580;2023-03-01T05:11:07;18.83;;;6.93;;
56233;SDS011;42141;53.240;6.580;2023-03-01T05:13:34;17.88;;;7.07;;
56233;SDS011;42141;53.240;6.580;2023-03-01T05:16:01;17.67;;;6.60;;
56233;SDS011;42141;53.240;6.580;2023-03-01T05:18:29;18.30;;;6.03;;
56233;SDS011;42141;53.240;6.580;2023-03-01T05:21:00;12.55;;;6.93;;
56233;SDS011;42141;53.240;6.580;2023-03-01T05:23:29;12.93;;;6.93;;
56233;SDS011;42141;53.240;6.580;2023-03-01T05:25:59;11.07;;;6.47;;
56233;SDS011;42141;53.240;6.580;2023-03-01T05:28:29;13.50;;;7.70;;
56233;SDS011;42141;53.240;6.580;2023-03-01T05:30:55;9.38;;;6.55;;
56233;SDS011;42141;53.240;6.580;2023-03-01T05:33:21;12.05;;;7.00;;
56233;SDS011;42141;53.240;6.580;2023-03-01T05:35:48;12.05;;;6.82;;
56233;SDS011;42141;53.240;6.580;2023-03-01T05:38:15;12.52;;;8.43;;
56233;SDS011;42141;53.240;6.580;2023-03-01T05:40:42;12.63;;;6.95;;
56233;SDS011;42141;53.240;6.580;2023-03-01T05:43:09;11.70;;;7.32;;
56233;SDS011;42141;53.240;6.580;2023-03-01T05:45:36;13.15;;;7.80;;
56233;SDS011;42141;53.240;6.580;2023-03-01T05:48:03;15.18;;;9.40;;
56233;SDS011;42141;53.240;6.580;2023-03-01T05:50:31;16.13;;;8.65;;
56233;SDS011;42141;53.240;6.580;2023-03-01T05:53:00;13.57;;;8.45;;
56233;SDS011;42141;53.240;6.580;2023-03-01T05:55:31;44.65;;;10.77;;
56233;SDS011;42141;53.240;6.580;2023-03-01T05:57:58;14.85;;;9.27;;
56233;SDS011;42141;53.240;6.580;2023-03-01T06:00:26;13.95;;;8.65;;
56233;SDS011;42141;53.240;6.580;2023-03-01T06:02:56;14.90;;;8.35;;
56233;SDS011;42141;53.240;6.580;2023-03-01T06:05:23;16.10;;;9.38;;
56233;SDS011;42141;53.240;6.580;2023-03-01T06:07:50;15.80;;;9.35;;
56233;SDS011;42141;53.240;6.580;2023-03-01T06:10:17;17.40;;;9.80;;
56233;SDS011;42141;53.240;6.580;2023-03-01T06:12:44;15.52;;;9.35;;
56233;SDS011;42141;53.240;6.580;2023-03-01T06:15:11;16.67;;;9.60;;
56233;SDS011;42141;53.240;6.580;2023-03-01T06:17:39;17.58;;;10.15;;
56233;SDS011;42141;53.240;6.580;2023-03-01T06:20:20;16.27;;;9.32;;
56233;SDS011;42141;53.240;6.580;2023-03-01T06:22:47;19.85;;;9.40;;
56233;SDS011;42141;53.240;6.580;2023-03-01T06:25:15;17.83;;;9.90;;
56233;SDS011;42141;53.240;6.580;2023-03-01T06:27:43;18.70;;;10.23;;
56233;SDS011;42141;53.240;6.580;2023-03-01T06:30:10;19.45;;;10.23;;
56233;SDS011;42141;53.240;6.580;2023-03-01T06:32:39;18.33;;;10.55;;
56233;SDS011;42141;53.240;6.580;2023-03-01T06:35:12;16.70;;;10.05;;
56233;SDS011;42141;53.240;6.580;2023-03-01T06:37:40;15.77;;;9.80;;
56233;SDS011;42141;53.240;6.580;2023-03-01T06:40:06;14.38;;;9.38;;
56233;SDS011;42141;53.240;6.580;2023-03-01T06:42:36;19.73;;;11.05;;
56233;SDS011;42141;53.240;6.580;2023-03-01T06:45:03;18.45;;;11.18;;
56233;SDS011;42141;53.240;6.580;2023-03-01T06:47:29;18.65;;;10.50;;
56233;SDS011;42141;53.240;6.580;2023-03-01T06:49:55;18.92;;;11.30;;
56233;SDS011;42141;53.240;6.580;2023-03-01T06:52:21;20.95;;;10.98;;
56233;SDS011;42141;53.240;6.580;2023-03-01T06:54:46;32.72;;;11.35;;
56233;SDS011;42141;53.240;6.580;2023-03-01T06:57:12;27.50;;;11.55;;
56233;SDS011;42141;53.240;6.580;2023-03-01T06:59:38;20.50;;;11.38;;
56233;SDS011;42141;53.240;6.580;2023-03-01T07:02:03;19.10;;;11.05;;
56233;SDS011;42141;53.240;6.580;2023-03-01T07:04:29;18.25;;;10.15;;
56233;SDS011;42141;53.240;6.580;2023-03-01T07:06:55;19.83;;;10.75;;
56233;SDS011;42141;53.240;6.580;2023-03-01T07:09:22;15.38;;;10.18;;
56233;SDS011;42141;53.240;6.580;2023-03-01T07:11:48;19.67;;;11.10;;
56233;SDS011;42141;53.240;6.580;2023-03-01T07:14:14;20.20;;;10.07;;
56233;SDS011;42141;53.240;6.580;2023-03-01T07:16:40;17.90;;;10.93;;
56233;SDS011;42141;53.240;6.580;2023-03-01T07:19:06;23.00;;;11.32;;
56233;SDS011;42141;53.240;6.580;2023-03-01T07:21:32;19.40;;;11.07;;
56233;SDS011;42141;53.240;6.580;2023-03-01T07:23:57;18.30;;;11.13;;
56233;SDS011;42141;53.240;6.580;2023-03-01T07:26:23;18.73;;;11.13;;
56233;SDS011;42141;53.240;6.580;2023-03-01T07:28:49;19.08;;;11.07;;
56233;SDS011;42141;53.240;6.580;2023-03-01T07:31:14;20.02;;;11.40;;
56233;SDS011;42141;53.240;6.580;2023-03-01T07:33:40;17.63;;;10.98;;
56233;SDS011;42141;53.240;6.580;2023-03-01T07:36:06;16.90;;;10.48;;
56233;SDS011;42141;53.240;6.580;2023-03-01T07:38:32;19.02;;;11.60;;
56233;SDS011;42141;53.240;6.580;2023-03-01T07:41:02;17.40;;;11.02;;
56233;SDS011;42141;53.240;6.580;2023-03-01T07:43:29;19.33;;;11.18;;
56233;SDS011;42141;53.240;6.580;2023-03-01T07:45:57;18.58;;;11.35;;
56233;SDS011;42141;53.240;6.580;2023-03-01T07:48:24;20.90;;;12.25;;
56233;SDS011;42141;53.240;6.580;2023-03-01T07:50:50;18.60;;;11.10;;
56233;SDS011;42141;53.240;6.580;2023-03-01T07:53:15;19.73;;;11.32;;
56233;SDS011;42141;53.240;6.580;2023-03-01T07:55:41;18.67;;;11.50;;
56233;SDS011;42141;53.240;6.580;2023-03-01T07:58:07;19.17;;;11.15;;
56233;SDS011;42141;53.240;6.580;2023-03-01T08:00:32;19.35;;;11.82;;
56233;SDS011;42141;53.240;6.580;2023-03-01T08:02:59;20.83;;;12.50;;
56233;SDS011;42141;53.240;6.580;2023-03-01T08:05:25;19.73;;;12.65;;
56233;SDS011;42141;53.240;6.580;2023-03-01T08:07:52;22.35;;;13.38;;
56233;SDS011;42141;53.240;6.580;2023-03-01T08:10:18;23.48;;;14.73;;
56233;SDS011;42141;53.240;6.580;2023-03-01T08:12:44;27.38;;;15.85;;
56233;SDS011;42141;53.240;6.580;2023-03-01T08:15:10;28.40;;;17.15;;
56233;SDS011;42141;53.240;6.580;2023-03-01T08:17:36;23.60;;;15.68;;
56233;SDS011;42141;53.240;6.580;2023-03-01T08:20:02;24.90;;;15.05;;
56233;SDS011;42141;53.240;6.580;2023-03-01T08:22:31;23.25;;;16.13;;
56233;SDS011;42141;53.240;6.580;2023-03-01T08:24:56;21.52;;;14.65;;
56233;SDS011;42141;53.240;6.580;2023-03-01T08:27:22;30.55;;;16.30;;
56233;SDS011;42141;53.240;6.580;2023-03-01T08:29:48;21.27;;;14.63;;
56233;SDS011;42141;53.240;6.580;2023-03-01T08:32:13;22.95;;;15.65;;
56233;SDS011;42141;53.240;6.580;2023-03-01T08:34:39;27.92;;;15.15;;
56233;SDS011;42141;53.240;6.580;2023-03-01T08:37:05;23.48;;;15.30;;
56233;SDS011;42141;53.240;6.580;2023-03-01T08:39:31;26.27;;;17.27;;
56233;SDS011;42141;53.240;6.580;2023-03-01T08:41:56;31.77;;;19.13;;
56233;SDS011;42141;53.240;6.580;2023-03-01T08:44:22;31.40;;;18.48;;
56233;SDS011;42141;53.240;6.580;2023-03-01T08:46:48;32.05;;;19.50;;
56233;SDS011;42141;53.240;6.580;2023-03-01T08:49:16;33.17;;;18.65;;
56233;SDS011;42141;53.240;6.580;2023-03-01T08:51:43;31.38;;;20.05;;
56233;SDS011;42141;53.240;6.580;2023-03-01T08:54:11;32.45;;;18.42;;
56233;SDS011;42141;53.240;6.580;2023-03-01T08:56:41;29.45;;;18.65;;
56233;SDS011;42141;53.240;6.580;2023-03-01T08:59:08;30.33;;;19.35;;
56233;SDS011;42141;53.240;6.580;2023-03-01T09:01:35;31.48;;;19.95;;
56233;SDS011;42141;53.240;6.580;2023-03-01T09:04:02;33.72;;;18.25;;
56233;SDS011;42141;53.240;6.580;2023-03-01T09:06:30;30.05;;;18.77;;
56233;SDS011;42141;53.240;6.580;2023-03-01T09:08:58;30.25;;;19.15;;
56233;SDS011;42141;53.240;6.580;2023-03-01T09:11:24;31.75;;;19.05;;
56233;SDS011;42141;53.240;6.580;2023-03-01T09:13:50;35.05;;;20.80;;
56233;SDS011;42141;53.240;6.580;2023-03-01T09:16:16;32.92;;;20.15;;
56233;SDS011;42141;53.240;6.580;2023-03-01T09:18:43;32.55;;;19.00;;
56233;SDS011;42141;53.240;6.580;2023-03-01T09:21:13;28.42;;;19.30;;
56233;SDS011;42141;53.240;6.580;2023-03-01T09:23:41;26.83;;;17.92;;
56233;SDS011;42141;53.240;6.580;2023-03-01T09:26:10;28.20;;;18.48;;
56233;SDS011;42141;53.240;6.580;2023-03-01T09:28:37;27.10;;;18.83;;
56233;SDS011;42141;53.240;6.580;2023-03-01T09:31:04;32.90;;;20.38;;
56233;SDS011;42141;53.240;6.580;2023-03-01T09:33:30;31.70;;;18.63;;
56233;SDS011;42141;53.240;6.580;2023-03-01T09:36:07;29.15;;;18.42;;
56233;SDS011;42141;53.240;6.580;2023-03-01T09:38:39;31.73;;;19.10;;
56233;SDS011;42141;53.240;6.580;2023-03-01T09:43:44;29.85;;;18.42;;
56233;SDS011;42141;53.240;6.580;2023-03-01T09:46:11;25.20;;;17.52;;
56233;SDS011;42141;53.240;6.580;2023-03-01T09:48:46;28.60;;;18.30;;
56233;SDS011;42141;53.240;6.580;2023-03-01T09:51:27;26.30;;;15.88;;
56233;SDS011;42141;53.240;6.580;2023-03-01T09:53:56;25.70;;;15.98;;
56233;SDS011;42141;53.240;6.580;2023-03-01T09:56:37;24.52;;;16.25;;
56233;SDS011;42141;53.240;6.580;2023-03-01T09:59:27;23.08;;;16.40;;
56233;SDS011;42141;53.240;6.580;2023-03-01T10:02:45;21.30;;;14.52;;
56233;SDS011;42141;53.240;6.580;2023-03-01T10:04:55;36.78;;;14.73;;
56233;SDS011;42141;53.240;6.580;2023-03-01T10:07:54;20.42;;;14.45;;
56233;SDS011;42141;53.240;6.580;2023-03-01T10:10:26;23.20;;;14.88;;
56233;SDS011;42141;53.240;6.580;2023-03-01T10:12:57;19.10;;;13.05;;
56233;SDS011;42141;53.240;6.580;2023-03-01T10:15:39;24.75;;;14.68;;
56233;SDS011;42141;53.240;6.580;2023-03-01T10:18:12;24.35;;;15.20;;
56233;SDS011;42141;53.240;6.580;2023-03-01T10:20:47;24.00;;;16.05;;
56233;SDS011;42141;53.240;6.580;2023-03-01T10:23:17;20.08;;;13.98;;
56233;SDS011;42141;53.240;6.580;2023-03-01T10:28:20;21.23;;;15.27;;
56233;SDS011;42141;53.240;6.580;2023-03-01T10:30:50;24.20;;;13.75;;
56233;SDS011;42141;53.240;6.580;2023-03-01T10:33:21;22.15;;;14.90;;
56233;SDS011;42141;53.240;6.580;2023-03-01T10:36:18;21.48;;;13.68;;
56233;SDS011;42141;53.240;6.580;2023-03-01T10:39:17;23.58;;;14.45;;
56233;SDS011;42141;53.240;6.580;2023-03-01T10:41:40;21.92;;;13.80;;
56233;SDS011;42141;53.240;6.580;2023-03-01T10:44:46;19.23;;;14.00;;
56233;SDS011;42141;53.240;6.580;2023-03-01T10:52:32;18.55;;;12.15;;
56233;SDS011;42141;53.240;6.580;2023-03-01T10:57:38;15.23;;;11.52;;
56233;SDS011;42141;53.240;6.580;2023-03-01T11:00:19;16.13;;;11.75;;
56233;SDS011;42141;53.240;6.580;2023-03-01T11:02:47;21.10;;;12.75;;
56233;SDS011;42141;53.240;6.580;2023-03-01T11:07:52;16.20;;;12.35;;
56233;SDS011;42141;53.240;6.580;2023-03-01T11:10:23;15.55;;;12.10;;
56233;SDS011;42141;53.240;6.580;2023-03-01T11:12:50;18.27;;;11.52;;
56233;SDS011;42141;53.240;6.580;2023-03-01T11:15:21;15.65;;;10.70;;
56233;SDS011;42141;53.240;6.580;2023-03-01T11:17:53;15.18;;;10.52;;
56233;SDS011;42141;53.240;6.580;2023-03-01T11:20:24;16.75;;;11.45;;
56233;SDS011;42141;53.240;6.580;2023-03-01T11:22:59;13.98;;;10.55;;
56233;SDS011;42141;53.240;6.580;2023-03-01T11:25:35;9.82;;;7.60;;
56233;SDS011;42141;53.240;6.580;2023-03-01T11:28:05;21.80;;;10.50;;
56233;SDS011;42141;53.240;6.580;2023-03-01T11:35:33;13.65;;;9.82;;
56233;SDS011;42141;53.240;6.580;2023-03-01T11:38:16;18.98;;;10.73;;
56233;SDS011;42141;53.240;6.580;2023-03-01T11:40:53;16.15;;;9.07;;
56233;SDS011;42141;53.240;6.580;2023-03-01T11:43:33;13.95;;;9.90;;
56233;SDS011;42141;53.240;6.580;2023-03-01T11:54:44;12.82;;;10.25;;
56233;SDS011;42141;53.240;6.580;2023-03-01T12:08:22;16.33;;;9.32;;
56233;SDS011;42141;53.240;6.580;2023-03-01T12:16:53;14.95;;;9.70;;
56233;SDS011;42141;53.240;6.580;2023-03-01T12:22:30;16.30;;;10.73;;
56233;SDS011;42141;53.240;6.580;2023-03-01T12:50:16;12.82;;;8.20;;
56233;SDS011;42141;53.240;6.580;2023-03-01T12:58:01;12.70;;;9.15;;
56233;SDS011;42141;53.240;6.580;2023-03-01T13:09:28;12.48;;;7.97;;
56233;SDS011;42141;53.240;6.580;2023-03-01T13:12:01;11.32;;;7.72;;
56233;SDS011;42141;53.240;6.580;2023-03-01T13:17:02;11.10;;;8.27;;
56233;SDS011;42141;53.240;6.580;2023-03-01T13:19:28;12.98;;;8.77;;
56233;SDS011;42141;53.240;6.580;2023-03-01T13:21:55;13.45;;;8.70;;
56233;SDS011;42141;53.240;6.580;2023-03-01T13:29:44;19.70;;;11.57;;
56233;SDS011;42141;53.240;6.580;2023-03-01T13:32:34;13.63;;;9.50;;
56233;SDS011;42141;53.240;6.580;2023-03-01T13:37:36;15.00;;;8.65;;
56233;SDS011;42141;53.240;6.580;2023-03-01T13:40:57;12.63;;;8.57;;
56233;SDS011;42141;53.240;6.580;2023-03-01T13:42:49;11.55;;;8.20;;
56233;SDS011;42141;53.240;6.580;2023-03-01T13:45:21;12.60;;;7.55;;
56233;SDS011;42141;53.240;6.580;2023-03-01T13:48:11;15.45;;;8.93;;
56233;SDS011;42141;53.240;6.580;2023-03-01T13:50:48;12.93;;;8.30;;
56233;SDS011;42141;53.240;6.580;2023-03-01T13:53:19;14.30;;;7.78;;
56233;SDS011;42141;53.240;6.580;2023-03-01T13:55:55;11.77;;;7.57;;
56233;SDS011;42141;53.240;6.580;2023-03-01T14:00:56;11.70;;;7.07;;
56233;SDS011;42141;53.240;6.580;2023-03-01T14:03:23;10.38;;;7.38;;
56233;SDS011;42141;53.240;6.580;2023-03-01T14:06:00;10.93;;;8.93;;
56233;SDS011;42141;53.240;6.580;2023-03-01T14:08:29;11.20;;;8.27;;
56233;SDS011;42141;53.240;6.580;2023-03-01T14:19:16;9.65;;;7.88;;
56233;SDS011;42141;53.240;6.580;2023-03-01T14:22:40;12.32;;;8.20;;
56233;SDS011;42141;53.240;6.580;2023-03-01T14:24:50;11.75;;;7.93;;
56233;SDS011;42141;53.240;6.580;2023-03-01T14:27:19;11.25;;;7.53;;
56233;SDS011;42141;53.240;6.580;2023-03-01T14:29:55;10.43;;;8.52;;
56233;SDS011;42141;53.240;6.580;2023-03-01T14:34:51;10.52;;;7.85;;
56233;SDS011;42141;53.240;6.580;2023-03-01T14:37:19;16.02;;;9.10;;
56233;SDS011;42141;53.240;6.580;2023-03-01T14:39:45;15.40;;;8.32;;
56233;SDS011;42141;53.240;6.580;2023-03-01T14:42:12;12.90;;;8.75;;
56233;SDS011;42141;53.240;6.580;2023-03-01T14:44:41;16.23;;;8.85;;
56233;SDS011;42141;53.240;6.580;2023-03-01T14:47:11;9.63;;;7.78;;
56233;SDS011;42141;53.240;6.580;2023-03-01T14:49:48;14.25;;;8.02;;
56233;SDS011;42141;53.240;6.580;2023-03-01T14:52:23;12.27;;;8.52;;
56233;SDS011;42141;53.240;6.580;2023-03-01T14:54:56;12.30;;;8.05;;
56233;SDS011;42141;53.240;6.580;2023-03-01T14:57:23;10.80;;;8.57;;
56233;SDS011;42141;53.240;6.580;2023-03-01T14:59:51;12.27;;;8.77;;
56233;SDS011;42141;53.240;6.580;2023-03-01T15:02:24;13.80;;;9.10;;
56233;SDS011;42141;53.240;6.580;2023-03-01T15:04:52;13.70;;;8.10;;
56233;SDS011;42141;53.240;6.580;2023-03-01T15:07:33;12.57;;;8.88;;
56233;SDS011;42141;53.240;6.580;2023-03-01T15:10:00;13.45;;;9.18;;
56233;SDS011;42141;53.240;6.580;2023-03-01T15:14:54;13.45;;;8.60;;
56233;SDS011;42141;53.240;6.580;2023-03-01T15:20:04;12.50;;;8.47;;
56233;SDS011;42141;53.240;6.580;2023-03-01T15:22:32;15.15;;;9.88;;
56233;SDS011;42141;53.240;6.580;2023-03-01T15:24:58;12.05;;;8.85;;
56233;SDS011;42141;53.240;6.580;2023-03-01T15:27:24;13.43;;;8.75;;
56233;SDS011;42141;53.240;6.580;2023-03-01T15:30:00;12.77;;;8.80;;
56233;SDS011;42141;53.240;6.580;2023-03-01T15:32:32;13.10;;;8.35;;
56233;SDS011;42141;53.240;6.580;2023-03-01T15:38:22;11.80;;;7.35;;
56233;SDS011;42141;53.240;6.580;2023-03-01T15:40:50;14.75;;;7.88;;
56233;SDS011;42141;53.240;6.580;2023-03-01T15:46:11;12.75;;;8.18;;
56233;SDS011;42141;53.240;6.580;2023-03-01T15:48:50;13.35;;;8.43;;
56233;SDS011;42141;53.240;6.580;2023-03-01T15:51:23;12.95;;;8.73;;
56233;SDS011;42141;53.240;6.580;2023-03-01T15:53:54;14.98;;;8.57;;
56233;SDS011;42141;53.240;6.580;2023-03-01T15:56:21;15.30;;;8.90;;
56233;SDS011;42141;53.240;6.580;2023-03-01T15:58:46;16.92;;;8.50;;
56233;SDS011;42141;53.240;6.580;2023-03-01T16:01:13;11.70;;;8.20;;
56233;SDS011;42141;53.240;6.580;2023-03-01T16:03:41;12.88;;;8.68;;
56233;SDS011;42141;53.240;6.580;2023-03-01T16:06:11;11.07;;;8.10;;
56233;SDS011;42141;53.240;6.580;2023-03-01T16:08:37;12.50;;;8.95;;
56233;SDS011;42141;53.240;6.580;2023-03-01T16:11:17;14.70;;;9.07;;
56233;SDS011;42141;53.240;6.580;2023-03-01T16:13:44;15.50;;;10.15;;
56233;SDS011;42141;53.240;6.580;2023-03-01T16:16:10;16.48;;;9.77;;
56233;SDS011;42141;53.240;6.580;2023-03-01T16:18:39;14.38;;;9.70;;
56233;SDS011;42141;53.240;6.580;2023-03-01T16:21:06;18.27;;;9.35;;
56233;SDS011;42141;53.240;6.580;2023-03-01T16:23:32;16.55;;;10.20;;
56233;SDS011;42141;53.240;6.580;2023-03-01T16:26:01;14.40;;;9.02;;
56233;SDS011;42141;53.240;6.580;2023-03-01T16:28:26;15.00;;;10.27;;
56233;SDS011;42141;53.240;6.580;2023-03-01T16:30:52;11.82;;;9.18;;
56233;SDS011;42141;53.240;6.580;2023-03-01T16:33:18;23.00;;;9.73;;
56233;SDS011;42141;53.240;6.580;2023-03-01T16:35:46;18.85;;;10.02;;
56233;SDS011;42141;53.240;6.580;2023-03-01T16:38:12;14.13;;;8.65;;
56233;SDS011;42141;53.240;6.580;2023-03-01T16:40:38;17.25;;;9.60;;
56233;SDS011;42141;53.240;6.580;2023-03-01T16:43:04;18.55;;;9.70;;
56233;SDS011;42141;53.240;6.580;2023-03-01T16:45:34;16.75;;;10.13;;
56233;SDS011;42141;53.240;6.580;2023-03-01T16:48:01;12.00;;;8.52;;
56233;SDS011;42141;53.240;6.580;2023-03-01T16:50:27;13.55;;;9.50;;
56233;SDS011;42141;53.240;6.580;2023-03-01T16:52:53;15.10;;;9.13;;
56233;SDS011;42141;53.240;6.580;2023-03-01T16:55:19;12.90;;;9.43;;